createdAt,value
2016-04-30T00:00:50.085Z,0
2016-04-30T00:01:50.478Z,0
2016-04-30T00:02:35.949Z,0
2016-04-30T00:03:35.951Z,0
2016-04-30T00:04:35.783Z,0
2016-04-30T00:05:35.738Z,0
2016-04-30T00:06:35.741Z,0
2016-04-30T00:07:49.619Z,0
2016-04-30T00:08:35.699Z,0
2016-04-30T00:09:35.265Z,0
2016-04-30T00:10:35.705Z,0
2016-04-30T00:11:35.707Z,0
2016-04-30T00:12:35.695Z,0
2016-04-30T00:13:49.635Z,0
2016-04-30T00:14:36.326Z,0
2016-04-30T00:15:35.547Z,0
2016-04-30T00:16:35.753Z,0
2016-04-30T00:17:35.708Z,0
2016-04-30T00:18:36.398Z,0
2016-04-30T00:19:35.558Z,0
2016-04-30T00:20:35.576Z,0
2016-04-30T00:21:35.219Z,0
2016-04-30T00:22:35.691Z,0
2016-04-30T00:23:35.694Z,0
2016-04-30T00:24:35.524Z,0
2016-04-30T00:25:35.918Z,0
2016-04-30T00:26:35.936Z,0
2016-04-30T00:27:35.736Z,0
2016-04-30T00:28:35.675Z,0
2016-04-30T00:29:35.710Z,0
2016-04-30T00:30:35.727Z,0
2016-04-30T00:31:36.309Z,0
2016-04-30T00:32:35.718Z,0
2016-04-30T00:33:37.158Z,0
2016-04-30T00:34:35.879Z,0
2016-04-30T00:35:35.694Z,0
2016-04-30T00:36:35.729Z,0
2016-04-30T00:37:35.872Z,0
2016-04-30T00:38:35.702Z,0
2016-04-30T00:39:35.876Z,0
2016-04-30T00:40:35.660Z,0
2016-04-30T00:41:35.663Z,0
2016-04-30T00:42:35.682Z,0
2016-04-30T00:43:35.669Z,0
2016-04-30T00:44:35.765Z,0
2016-04-30T00:46:35.334Z,0
2016-04-30T00:47:35.648Z,0
2016-04-30T00:48:35.495Z,0
2016-04-30T00:49:35.014Z,0
2016-04-30T00:50:35.687Z,0
2016-04-30T00:51:35.925Z,0
2016-04-30T00:52:35.850Z,0
2016-04-30T00:53:35.181Z,0
2016-04-30T00:54:35.855Z,0
2016-04-30T00:55:36.076Z,0
2016-04-30T00:56:35.766Z,0
2016-04-30T00:57:35.535Z,0
2016-04-30T00:58:35.600Z,0
2016-04-30T00:59:36.056Z,0
2016-04-30T01:00:35.683Z,0
2016-04-30T01:01:35.499Z,0
2016-04-30T01:02:35.454Z,0
2016-04-30T01:03:37.270Z,0
2016-04-30T01:04:35.866Z,0
2016-04-30T01:05:35.868Z,0
2016-04-30T01:06:35.466Z,0
2016-04-30T01:07:35.874Z,0
2016-04-30T01:08:35.877Z,0
2016-04-30T01:10:35.601Z,0
2016-04-30T01:11:35.510Z,0
2016-04-30T01:12:35.669Z,0
2016-04-30T01:13:35.828Z,0
2016-04-30T01:14:35.831Z,0
2016-04-30T01:15:35.630Z,0
2016-04-30T01:16:35.461Z,0
2016-04-30T01:17:35.620Z,0
2016-04-30T01:18:35.513Z,0
2016-04-30T01:19:35.609Z,0
2016-04-30T01:20:35.800Z,0
2016-04-30T01:21:35.803Z,0
2016-04-30T01:22:35.602Z,0
2016-04-30T01:23:35.605Z,0
2016-04-30T01:24:35.608Z,0
2016-04-30T01:25:35.828Z,0
2016-04-30T01:26:35.628Z,0
2016-04-30T01:27:35.803Z,0
2016-04-30T01:28:35.477Z,0
2016-04-30T01:29:35.621Z,0
2016-04-30T01:30:35.138Z,0
2016-04-30T01:31:35.610Z,0
2016-04-30T01:32:35.583Z,0
2016-04-30T01:33:36.132Z,0
2016-04-30T01:34:35.603Z,0
2016-04-30T01:35:35.574Z,0
2016-04-30T01:36:35.968Z,0
2016-04-30T01:37:35.424Z,0
2016-04-30T01:38:35.645Z,0
2016-04-30T01:39:35.835Z,0
2016-04-30T01:40:35.572Z,0
2016-04-30T01:41:49.653Z,0
2016-04-30T01:42:35.609Z,0
2016-04-30T01:43:35.596Z,0
2016-04-30T01:44:35.849Z,0
2016-04-30T01:45:35.555Z,0
2016-04-30T01:46:35.635Z,0
2016-04-30T01:47:35.778Z,0
2016-04-30T01:48:35.328Z,0
2016-04-30T01:49:35.565Z,0
2016-04-30T01:50:49.817Z,0
2016-04-30T01:51:35.759Z,0
2016-04-30T01:52:35.542Z,0
2016-04-30T01:53:35.592Z,0
2016-04-30T01:54:35.422Z,0
2016-04-30T01:55:49.628Z,0
2016-04-30T01:56:35.850Z,0
2016-04-30T01:57:35.586Z,0
2016-04-30T01:58:35.542Z,0
2016-04-30T01:59:35.592Z,0
2016-04-30T02:00:35.751Z,0
2016-04-30T02:01:36.191Z,0
2016-04-30T02:02:35.569Z,0
2016-04-30T02:03:35.369Z,0
2016-04-30T02:04:35.997Z,0
2016-04-30T02:05:35.374Z,0
2016-04-30T02:06:35.533Z,0
2016-04-30T02:07:35.535Z,0
2016-04-30T02:08:35.929Z,0
2016-04-30T02:09:35.525Z,0
2016-04-30T02:10:35.543Z,0
2016-04-30T02:11:35.530Z,0
2016-04-30T02:12:35.518Z,0
2016-04-30T02:13:35.568Z,0
2016-04-30T02:14:35.226Z,0
2016-04-30T02:16:35.700Z,0
2016-04-30T02:17:35.501Z,0
2016-04-30T02:18:36.581Z,0
2016-04-30T02:19:35.740Z,0
2016-04-30T02:20:35.539Z,0
2016-04-30T02:21:35.932Z,0
2016-04-30T02:22:35.529Z,0
2016-04-30T02:23:35.735Z,0
2016-04-30T02:24:35.690Z,0
2016-04-30T02:25:35.678Z,0
2016-04-30T02:26:35.492Z,0
2016-04-30T02:27:35.480Z,0
2016-04-30T02:28:35.701Z,0
2016-04-30T02:29:35.703Z,0
2016-04-30T02:30:36.223Z,0
2016-04-30T02:31:35.038Z,0
2016-04-30T02:32:35.712Z,0
2016-04-30T02:33:35.511Z,0
2016-04-30T02:34:34.967Z,0
2016-04-30T02:35:35.485Z,0
2016-04-30T02:36:35.457Z,0
2016-04-30T02:37:35.663Z,0
2016-04-30T02:38:35.432Z,0
2016-04-30T02:39:35.449Z,0
2016-04-30T02:40:35.624Z,0
2016-04-30T02:41:35.736Z,0
2016-04-30T02:42:35.457Z,0
2016-04-30T02:43:35.445Z,0
2016-04-30T02:44:35.448Z,0
2016-04-30T02:45:35.435Z,0
2016-04-30T02:46:35.437Z,0
2016-04-30T02:47:49.518Z,0
2016-04-30T02:48:35.629Z,0
2016-04-30T02:49:35.508Z,0
2016-04-30T02:50:35.448Z,0
2016-04-30T02:51:35.420Z,0
2016-04-30T02:52:49.719Z,0
2016-04-30T02:53:35.268Z,0
2016-04-30T02:54:35.614Z,0
2016-04-30T02:55:35.430Z,0
2016-04-30T02:56:34.777Z,0
2016-04-30T02:57:49.498Z,0
2016-04-30T02:58:35.501Z,0
2016-04-30T02:59:35.831Z,0
2016-04-30T03:00:35.396Z,4
2016-04-30T03:01:35.602Z,4
2016-04-30T03:02:35.402Z,0
2016-04-30T03:03:35.624Z,0
2016-04-30T03:04:35.252Z,4
2016-04-30T03:05:35.379Z,0
2016-04-30T03:06:35.397Z,4
2016-04-30T03:07:35.291Z,4
2016-04-30T03:08:49.684Z,4
2016-04-30T03:09:49.686Z,4
2016-04-30T03:10:35.658Z,8
2016-04-30T03:11:35.410Z,8
2016-04-30T03:12:35.601Z,12
2016-04-30T03:13:49.307Z,12
2016-04-30T03:15:35.563Z,12
2016-04-30T03:16:49.440Z,16
2016-04-30T03:17:35.412Z,20
2016-04-30T03:18:35.226Z,20
2016-04-30T03:19:37.104Z,24
2016-04-30T03:20:49.825Z,32
2016-04-30T03:21:35.437Z,32
2016-04-30T03:22:35.190Z,36
2016-04-30T03:23:35.365Z,44
2016-04-30T03:24:35.195Z,52
2016-04-30T03:26:35.342Z,68
2016-04-30T03:27:49.422Z,80
2016-04-30T03:28:35.581Z,88
2016-04-30T03:29:49.678Z,104
2016-04-30T03:30:35.415Z,116
2016-04-30T03:31:35.370Z,128
2016-04-30T03:33:35.477Z,164
2016-04-30T03:34:37.378Z,180
2016-04-30T03:35:35.746Z,200
2016-04-30T03:36:35.770Z,216
2016-04-30T03:37:35.373Z,236
2016-04-30T03:38:35.300Z,260
2016-04-30T03:39:35.494Z,280
2016-04-30T03:40:35.718Z,304
2016-04-30T03:41:35.677Z,332
2016-04-30T03:42:35.562Z,364
2016-04-30T03:43:35.041Z,396
2016-04-30T03:44:35.691Z,436
2016-04-30T03:45:35.669Z,472
2016-04-30T03:46:35.523Z,512
2016-04-30T03:47:35.122Z,556
2016-04-30T03:49:35.867Z,644
2016-04-30T03:50:35.529Z,692
2016-04-30T03:51:35.706Z,740
2016-04-30T03:52:35.570Z,788
2016-04-30T03:53:49.979Z,848
2016-04-30T03:54:35.733Z,888
2016-04-30T03:55:35.955Z,940
2016-04-30T03:56:35.739Z,996
2016-04-30T03:57:35.695Z,1048
2016-04-30T03:58:35.762Z,1104
2016-04-30T03:59:35.686Z,1156
2016-04-30T04:00:35.674Z,1212
2016-04-30T04:01:49.755Z,1280
2016-04-30T04:02:35.664Z,1316
2016-04-30T04:03:35.511Z,1364
2016-04-30T04:04:36.044Z,1416
2016-04-30T04:05:35.499Z,1468
2016-04-30T04:06:35.924Z,1524
2016-04-30T04:07:35.879Z,1580
2016-04-30T04:08:36.071Z,1644
2016-04-30T04:09:35.730Z,1708
2016-04-30T04:10:35.717Z,1764
2016-04-30T04:11:36.266Z,1828
2016-04-30T04:12:49.722Z,1900
2016-04-30T04:13:35.646Z,1948
2016-04-30T04:14:35.493Z,2012
2016-04-30T04:15:35.496Z,2072
2016-04-30T04:16:35.842Z,2132
2016-04-30T04:17:35.673Z,2196
2016-04-30T04:18:35.488Z,2256
2016-04-30T04:19:35.772Z,2320
2016-04-30T04:20:35.869Z,2376
2016-04-30T04:21:35.856Z,2436
2016-04-30T04:22:49.749Z,2504
2016-04-30T04:23:35.892Z,2544
2016-04-30T04:24:35.613Z,2596
2016-04-30T04:25:35.460Z,2648
2016-04-30T04:26:35.619Z,2704
2016-04-30T04:27:35.763Z,2768
2016-04-30T04:28:35.609Z,2824
2016-04-30T04:29:35.611Z,2880
2016-04-30T04:30:35.817Z,2952
2016-04-30T04:31:35.819Z,3048
2016-04-30T04:32:35.119Z,3124
2016-04-30T04:33:36.106Z,3192
2016-04-30T04:34:49.672Z,3264
2016-04-30T04:35:35.815Z,3308
2016-04-30T04:36:35.552Z,3360
2016-04-30T04:37:35.446Z,3408
2016-04-30T04:38:49.885Z,3464
2016-04-30T04:39:35.607Z,3496
2016-04-30T04:41:35.643Z,3556
2016-04-30T04:42:35.599Z,3572
2016-04-30T04:43:35.743Z,3604
2016-04-30T04:44:34.620Z,3636
2016-04-30T04:45:49.732Z,3672
2016-04-30T04:46:35.595Z,3672
2016-04-30T04:47:35.832Z,3704
2016-04-30T04:48:35.428Z,3764
2016-04-30T04:49:35.743Z,3840
2016-04-30T04:50:35.464Z,3892
2016-04-30T04:51:35.608Z,3952
2016-04-30T04:52:35.454Z,4024
2016-04-30T04:53:35.458Z,4104
2016-04-30T04:54:49.881Z,4184
2016-04-30T04:55:35.775Z,4232
2016-04-30T04:56:35.590Z,4288
2016-04-30T04:57:35.858Z,4344
2016-04-30T04:58:35.799Z,4404
2016-04-30T04:59:50.083Z,4460
2016-04-30T05:00:35.570Z,4496
2016-04-30T05:01:35.416Z,4532
2016-04-30T05:02:35.575Z,4564
2016-04-30T05:03:35.312Z,4592
2016-04-30T05:04:35.440Z,4620
2016-04-30T05:05:35.615Z,4648
2016-04-30T05:06:35.555Z,4668
2016-04-30T05:07:35.791Z,4688
2016-04-30T05:08:35.607Z,4716
2016-04-30T05:09:50.062Z,4768
2016-04-30T05:10:35.581Z,4788
2016-04-30T05:11:36.193Z,4812
2016-04-30T05:12:35.759Z,4848
2016-04-30T05:13:35.979Z,4908
2016-04-30T05:14:35.420Z,4944
2016-04-30T05:15:35.548Z,4956
2016-04-30T05:16:35.081Z,4996
2016-04-30T05:17:35.068Z,5044
2016-04-30T05:18:36.009Z,5096
2016-04-30T05:19:49.731Z,5164
2016-04-30T05:20:35.795Z,5208
2016-04-30T05:21:35.579Z,5252
2016-04-30T05:22:35.988Z,5284
2016-04-30T05:23:35.584Z,5272
2016-04-30T05:24:35.603Z,5276
2016-04-30T05:25:35.637Z,5288
2016-04-30T05:26:35.764Z,5276
2016-04-30T05:27:35.767Z,5252
2016-04-30T05:28:35.630Z,5224
2016-04-30T05:29:49.991Z,5208
2016-04-30T05:30:35.557Z,5192
2016-04-30T05:31:35.778Z,5088
2016-04-30T05:33:35.861Z,5160
2016-04-30T05:34:35.443Z,5136
2016-04-30T05:35:35.601Z,5120
2016-04-30T05:36:35.620Z,5092
2016-04-30T05:37:35.716Z,5052
2016-04-30T05:38:35.782Z,5012
2016-04-30T05:39:35.627Z,4980
2016-04-30T05:40:35.584Z,5004
2016-04-30T05:41:35.429Z,4992
2016-04-30T05:42:35.292Z,5104
2016-04-30T05:43:35.935Z,5104
2016-04-30T05:44:36.032Z,5068
2016-04-30T05:45:36.191Z,5064
2016-04-30T05:46:35.568Z,5080
2016-04-30T05:47:35.790Z,5080
2016-04-30T05:48:35.574Z,5084
2016-04-30T05:49:35.733Z,5212
2016-04-30T05:50:36.017Z,5324
2016-04-30T05:51:35.769Z,5360
2016-04-30T05:52:35.772Z,5392
2016-04-30T05:54:35.839Z,5496
2016-04-30T05:55:35.592Z,5552
2016-04-30T05:56:35.627Z,5620
2016-04-30T05:57:35.176Z,5680
2016-04-30T05:58:35.601Z,5744
2016-04-30T05:59:35.479Z,5808
2016-04-30T06:00:49.887Z,5892
2016-04-30T06:01:35.593Z,5936
2016-04-30T06:02:35.597Z,5984
2016-04-30T06:03:35.677Z,6020
2016-04-30T06:04:35.789Z,6044
2016-04-30T06:05:35.604Z,6056
2016-04-30T06:06:35.607Z,6072
2016-04-30T06:07:35.813Z,6084
2016-04-30T06:08:35.690Z,6056
2016-04-30T06:09:35.458Z,6248
2016-04-30T06:10:35.477Z,6456
2016-04-30T06:11:35.855Z,6572
2016-04-30T06:12:35.873Z,6588
2016-04-30T06:13:35.485Z,6648
2016-04-30T06:14:35.628Z,6708
2016-04-30T06:15:35.818Z,6776
2016-04-30T06:17:03.774Z,6860
2016-04-30T06:17:36.058Z,6888
2016-04-30T06:18:49.561Z,6936
2016-04-30T06:19:36.079Z,6968
2016-04-30T06:20:35.520Z,6992
2016-04-30T06:21:35.631Z,7052
2016-04-30T06:22:35.509Z,7124
2016-04-30T06:24:35.633Z,7156
2016-04-30T06:25:35.667Z,7132
2016-04-30T06:26:35.858Z,7108
2016-04-30T06:27:35.658Z,7048
2016-04-30T06:28:35.504Z,7008
2016-04-30T06:29:35.897Z,6952
2016-04-30T06:30:35.697Z,6892
2016-04-30T06:31:49.763Z,6784
2016-04-30T06:32:35.952Z,6728
2016-04-30T06:33:35.518Z,6696
2016-04-30T06:34:35.754Z,6632
2016-04-30T06:35:49.960Z,6608
2016-04-30T06:36:35.885Z,6560
2016-04-30T06:37:35.699Z,6536
2016-04-30T06:38:35.546Z,6504
2016-04-30T06:39:35.784Z,6412
2016-04-30T06:40:35.708Z,6448
2016-04-30T06:41:35.789Z,6440
2016-04-30T06:42:35.917Z,6512
2016-04-30T06:43:35.434Z,6552
2016-04-30T06:44:35.922Z,6548
2016-04-30T06:45:35.925Z,6856
2016-04-30T06:46:36.536Z,6772
2016-04-30T06:47:35.945Z,6700
2016-04-30T06:48:36.120Z,6512
2016-04-30T06:49:35.592Z,6392
2016-04-30T06:50:35.829Z,6380
2016-04-30T06:51:35.722Z,6200
2016-04-30T06:52:35.755Z,6164
2016-04-30T06:53:35.728Z,6176
2016-04-30T06:54:35.590Z,6232
2016-04-30T06:55:35.092Z,6316
2016-04-30T06:56:35.579Z,6340
2016-04-30T06:57:35.769Z,6348
2016-04-30T06:58:36.022Z,6468
2016-04-30T06:59:35.994Z,6592
2016-04-30T07:00:35.825Z,6640
2016-04-30T07:01:35.780Z,6648
2016-04-30T07:02:35.830Z,6408
2016-04-30T07:03:50.177Z,6160
2016-04-30T07:04:50.897Z,6660
2016-04-30T07:05:36.009Z,6668
2016-04-30T07:06:36.232Z,6160
2016-04-30T07:07:35.859Z,6280
2016-04-30T07:08:35.815Z,6584
2016-04-30T07:09:36.052Z,6680
2016-04-30T07:10:35.851Z,6524
2016-04-30T07:11:50.338Z,6768
2016-04-30T07:12:35.341Z,7012
2016-04-30T07:13:35.875Z,6372
2016-04-30T07:14:35.846Z,6064
2016-04-30T07:15:35.724Z,6068
2016-04-30T07:16:35.899Z,6084
2016-04-30T07:17:35.901Z,6144
2016-04-30T07:18:35.873Z,6320
2016-04-30T07:20:35.940Z,6564
2016-04-30T07:21:35.756Z,6388
2016-04-30T07:22:50.165Z,6212
2016-04-30T07:23:35.917Z,6120
2016-04-30T07:24:35.936Z,6104
2016-04-30T07:25:36.017Z,6092
2016-04-30T07:26:50.097Z,6080
2016-04-30T07:27:36.006Z,6148
2016-04-30T07:28:36.416Z,6232
2016-04-30T07:29:35.715Z,6272
2016-04-30T07:30:36.405Z,6284
2016-04-30T07:31:35.830Z,6420
2016-04-30T07:32:36.269Z,6404
2016-04-30T07:33:36.022Z,6336
2016-04-30T07:34:36.119Z,6352
2016-04-30T07:35:35.966Z,6412
2016-04-30T07:36:35.999Z,6488
2016-04-30T07:37:50.096Z,6320
2016-04-30T07:38:35.864Z,6360
2016-04-30T07:39:36.038Z,6372
2016-04-30T07:40:36.229Z,6352
2016-04-30T07:41:36.232Z,6348
2016-04-30T07:42:36.031Z,6368
2016-04-30T07:43:36.081Z,6416
2016-04-30T07:44:35.880Z,6464
2016-04-30T07:45:36.336Z,6520
2016-04-30T07:46:36.276Z,6584
2016-04-30T07:47:36.107Z,6644
2016-04-30T07:48:35.907Z,6572
2016-04-30T07:49:36.565Z,6612
2016-04-30T07:50:35.834Z,6616
2016-04-30T07:52:36.105Z,6580
2016-04-30T07:53:36.108Z,6504
2016-04-30T07:54:36.329Z,6348
2016-04-30T07:55:35.816Z,6248
2016-04-30T07:56:36.116Z,6376
2016-04-30T07:57:36.181Z,6424
2016-04-30T07:58:36.199Z,6424
2016-04-30T07:59:36.452Z,6440
2016-04-30T08:00:36.361Z,6268
2016-04-30T08:01:36.160Z,6220
2016-04-30T08:02:36.178Z,6164
2016-04-30T08:03:36.244Z,6076
2016-04-30T08:04:36.324Z,6080
2016-04-30T08:05:36.093Z,6076
2016-04-30T08:06:36.282Z,6084
2016-04-30T08:07:35.579Z,6132
2016-04-30T08:08:36.445Z,6140
2016-04-30T08:09:50.541Z,6120
2016-04-30T08:10:36.246Z,6160
2016-04-30T08:11:36.437Z,6208
2016-04-30T08:13:50.567Z,6348
2016-04-30T08:14:36.726Z,6464
2016-04-30T08:15:36.307Z,6344
2016-04-30T08:16:36.310Z,6440
2016-04-30T08:17:36.484Z,6492
2016-04-30T08:18:36.331Z,6544
2016-04-30T08:19:36.224Z,6604
2016-04-30T08:20:36.383Z,6668
2016-04-30T08:21:50.620Z,6668
2016-04-30T08:22:36.245Z,6652
2016-04-30T08:23:35.889Z,6612
2016-04-30T08:24:50.457Z,6376
2016-04-30T08:25:36.412Z,6408
2016-04-30T08:26:36.477Z,6316
2016-04-30T08:27:50.309Z,6028
2016-04-30T08:28:36.387Z,6048
2016-04-30T08:29:36.405Z,6132
2016-04-30T08:30:36.645Z,6128
2016-04-30T08:31:50.710Z,6028
2016-04-30T08:32:36.444Z,5988
2016-04-30T08:33:36.636Z,6000
2016-04-30T08:34:38.686Z,6024
2016-04-30T08:35:36.514Z,5960
2016-04-30T08:38:36.507Z,6028
2016-04-30T08:39:36.212Z,6036
2016-04-30T08:40:51.077Z,6504
2016-04-30T08:41:36.796Z,6576
2016-04-30T08:42:36.487Z,6188
2016-04-30T08:43:36.395Z,6204
2016-04-30T08:44:36.351Z,6280
2016-04-30T08:45:36.557Z,6368
2016-04-30T08:46:37.343Z,6512
2016-04-30T08:47:36.921Z,6648
2016-04-30T08:48:36.753Z,6776
2016-04-30T08:49:36.240Z,6780
2016-04-30T08:50:36.243Z,6728
2016-04-30T08:51:36.417Z,6700
2016-04-30T08:52:50.876Z,6816
2016-04-30T08:53:36.845Z,6828
2016-04-30T08:54:36.612Z,6856
2016-04-30T08:55:36.614Z,6864
2016-04-30T08:56:37.055Z,6908
2016-04-30T08:57:36.902Z,6960
2016-04-30T08:58:36.858Z,6924
2016-04-30T08:59:36.875Z,6928
2016-04-30T09:00:36.628Z,6864
2016-04-30T09:01:50.744Z,6784
2016-04-30T09:02:50.933Z,6752
2016-04-30T09:03:36.511Z,6716
2016-04-30T09:04:36.546Z,6804
2016-04-30T09:06:36.739Z,6536
2016-04-30T09:07:37.054Z,6548
2016-04-30T09:08:36.557Z,6584
2016-04-30T09:09:36.763Z,6584
2016-04-30T09:10:36.765Z,6656
2016-04-30T09:11:36.751Z,6804
2016-04-30T09:12:36.770Z,6848
2016-04-30T09:13:36.757Z,6860
2016-04-30T09:14:36.901Z,6932
2016-04-30T09:15:36.762Z,6972
2016-04-30T09:16:36.781Z,6948
2016-04-30T09:17:36.784Z,6864
2016-04-30T09:18:36.787Z,6768
2016-04-30T09:19:38.479Z,6696
2016-04-30T09:20:36.807Z,6600
2016-04-30T09:21:36.857Z,6528
2016-04-30T09:22:36.673Z,6476
2016-04-30T09:23:36.862Z,6464
2016-04-30T09:24:36.834Z,6496
2016-04-30T09:25:50.965Z,6636
2016-04-30T09:26:36.715Z,6656
2016-04-30T09:27:37.060Z,6816
2016-04-30T09:28:36.906Z,6932
2016-04-30T09:29:50.975Z,6996
2016-04-30T09:30:36.944Z,7004
2016-04-30T09:31:36.446Z,6976
2016-04-30T09:32:37.105Z,6884
2016-04-30T09:33:36.936Z,6816
2016-04-30T09:34:36.923Z,6772
2016-04-30T09:35:36.988Z,6740
2016-04-30T09:36:36.961Z,6720
2016-04-30T09:37:36.681Z,6732
2016-04-30T09:38:36.808Z,6736
2016-04-30T09:39:37.233Z,6744
2016-04-30T09:40:37.033Z,6728
2016-04-30T09:41:36.849Z,6732
2016-04-30T09:42:36.866Z,6752
2016-04-30T09:43:36.869Z,6748
2016-04-30T09:44:36.934Z,6732
2016-04-30T09:45:37.657Z,6744
2016-04-30T09:46:37.065Z,6728
2016-04-30T09:47:36.926Z,6732
2016-04-30T09:48:37.086Z,6732
2016-04-30T09:49:37.588Z,6672
2016-04-30T09:50:37.122Z,6740
2016-04-30T09:51:37.282Z,6820
2016-04-30T09:52:37.331Z,6772
2016-04-30T09:53:51.227Z,6688
2016-04-30T09:54:37.149Z,6648
2016-04-30T09:55:51.264Z,6688
2016-04-30T09:56:37.154Z,6708
2016-04-30T09:57:37.234Z,6740
2016-04-30T09:58:37.394Z,6736
2016-04-30T09:59:37.037Z,6708
2016-04-30T10:00:37.181Z,6708
2016-04-30T10:01:37.199Z,6776
2016-04-30T10:02:37.452Z,6564
2016-04-30T10:03:37.080Z,6284
2016-04-30T10:04:37.864Z,6508
2016-04-30T10:06:36.931Z,6476
2016-04-30T10:07:37.277Z,6412
2016-04-30T10:08:37.952Z,6440
2016-04-30T10:09:51.973Z,6444
2016-04-30T10:10:37.519Z,6404
2016-04-30T10:11:36.851Z,6412
2016-04-30T10:12:37.291Z,6388
2016-04-30T10:13:37.590Z,6416
2016-04-30T10:14:51.596Z,6468
2016-04-30T10:15:37.533Z,6452
2016-04-30T10:16:37.583Z,6520
2016-04-30T10:17:38.617Z,6764
2016-04-30T10:18:37.260Z,7088
2016-04-30T10:19:37.404Z,7008
2016-04-30T10:20:37.234Z,7104
2016-04-30T10:21:37.410Z,7544
2016-04-30T10:22:37.396Z,7368
2016-04-30T10:23:37.399Z,7448
2016-04-30T10:24:37.402Z,7440
2016-04-30T10:25:37.451Z,7144
2016-04-30T10:26:37.891Z,6856
2016-04-30T10:27:37.488Z,6700
2016-04-30T10:28:37.709Z,6764
2016-04-30T10:30:05.621Z,6912
2016-04-30T10:30:37.715Z,6976
2016-04-30T10:31:37.326Z,7032
2016-04-30T10:32:37.595Z,7100
2016-04-30T10:33:37.520Z,7156
2016-04-30T10:34:38.038Z,7280
2016-04-30T10:35:37.556Z,7376
2016-04-30T10:36:37.543Z,7436
2016-04-30T10:37:37.390Z,7476
2016-04-30T10:38:37.767Z,7576
2016-04-30T10:39:37.614Z,7680
2016-04-30T10:40:51.650Z,7712
2016-04-30T10:41:37.619Z,7676
2016-04-30T10:42:51.766Z,7700
2016-04-30T10:43:37.672Z,7712
2016-04-30T10:44:37.643Z,7704
2016-04-30T10:45:37.349Z,7708
2016-04-30T10:46:37.696Z,7752
2016-04-30T10:47:37.666Z,7820
2016-04-30T10:48:37.669Z,7940
2016-04-30T10:49:37.641Z,8108
2016-04-30T10:50:37.706Z,8232
2016-04-30T10:51:37.896Z,8368
2016-04-30T10:52:37.914Z,8564
2016-04-30T10:53:37.761Z,8780
2016-04-30T10:54:37.999Z,8960
2016-04-30T10:55:51.848Z,9232
2016-04-30T10:56:37.973Z,9408
2016-04-30T10:57:37.771Z,9640
2016-04-30T10:58:52.090Z,9880
2016-04-30T10:59:37.824Z,9928
2016-04-30T11:00:37.514Z,10004
2016-04-30T11:01:37.829Z,10236
2016-04-30T11:02:37.831Z,10620
2016-04-30T11:03:38.101Z,10944
2016-04-30T11:04:38.556Z,11236
2016-04-30T11:05:38.308Z,11584
2016-04-30T11:06:37.890Z,11812
2016-04-30T11:07:37.611Z,12116
2016-04-30T11:08:37.925Z,12604
2016-04-30T11:09:38.148Z,13188
2016-04-30T11:10:37.932Z,13596
2016-04-30T11:11:37.966Z,14012
2016-04-30T11:12:37.671Z,14260
2016-04-30T11:13:38.799Z,14292
2016-04-30T11:14:38.183Z,14216
2016-04-30T11:15:37.494Z,14620
2016-04-30T11:16:38.637Z,14964
2016-04-30T11:17:38.046Z,15152
2016-04-30T11:18:37.862Z,15212
2016-04-30T11:19:38.490Z,15168
2016-04-30T11:20:37.633Z,15140
2016-04-30T11:21:38.260Z,15188
2016-04-30T11:22:38.138Z,15384
2016-04-30T11:23:37.953Z,15696
2016-04-30T11:24:37.628Z,15848
2016-04-30T11:25:37.974Z,16032
2016-04-30T11:26:52.464Z,16608
2016-04-30T11:27:38.136Z,16672
2016-04-30T11:28:38.342Z,16356
2016-04-30T11:29:38.391Z,16212
2016-04-30T11:30:38.253Z,15936
2016-04-30T11:31:38.787Z,15744
2016-04-30T11:32:38.211Z,15420
2016-04-30T11:33:52.811Z,15112
2016-04-30T11:34:38.108Z,14944
2016-04-30T11:35:52.567Z,14848
2016-04-30T11:36:38.239Z,14796
2016-04-30T11:37:38.913Z,14652
2016-04-30T11:38:38.336Z,14404
2016-04-30T11:39:38.746Z,14236
2016-04-30T11:40:37.827Z,14060
2016-04-30T11:41:52.036Z,13812
2016-04-30T11:42:38.552Z,13732
2016-04-30T11:43:38.147Z,13716
2016-04-30T11:44:38.572Z,13784
2016-04-30T11:45:38.356Z,13856
2016-04-30T11:46:38.234Z,14072
2016-04-30T11:47:38.283Z,14228
2016-04-30T11:48:38.676Z,14412
2016-04-30T11:49:38.788Z,14480
2016-04-30T11:50:38.291Z,14708
2016-04-30T11:51:38.701Z,14932
2016-04-30T11:52:52.581Z,15048
2016-04-30T11:53:38.081Z,15168
2016-04-30T11:54:38.536Z,15300
2016-04-30T11:55:38.570Z,15340
2016-04-30T11:56:38.948Z,15368
2016-04-30T11:57:39.154Z,15484
2016-04-30T11:58:38.562Z,15668
2016-04-30T11:59:38.815Z,15968
2016-04-30T12:00:38.428Z,16064
2016-04-30T12:01:38.743Z,16112
2016-04-30T12:02:38.856Z,16028
2016-04-30T12:03:38.622Z,15972
2016-04-30T12:04:38.828Z,16068
2016-04-30T12:06:38.553Z,15928
2016-04-30T12:07:38.681Z,15864
2016-04-30T12:08:53.374Z,15928
2016-04-30T12:09:38.702Z,15940
2016-04-30T12:10:39.172Z,16128
2016-04-30T12:11:38.519Z,16352
2016-04-30T12:12:38.803Z,16416
2016-04-30T12:13:39.478Z,16260
2016-04-30T12:15:06.671Z,16576
2016-04-30T12:15:39.046Z,16704
2016-04-30T12:16:38.736Z,16896
2016-04-30T12:17:38.691Z,17088
2016-04-30T12:18:38.585Z,17280
2016-04-30T12:19:39.822Z,17344
2016-04-30T12:20:38.950Z,17248
2016-04-30T12:21:39.156Z,17056
2016-04-30T12:22:39.127Z,16928
2016-04-30T12:23:39.192Z,16800
2016-04-30T12:24:38.789Z,16768
2016-04-30T12:25:38.823Z,16672
2016-04-30T12:26:39.263Z,16608
2016-04-30T12:27:53.096Z,16608
2016-04-30T12:28:38.721Z,16640
2016-04-30T12:29:39.021Z,16736
2016-04-30T12:30:39.259Z,16832
2016-04-30T12:31:39.308Z,16864
2016-04-30T12:32:38.606Z,17120
2016-04-30T12:33:39.344Z,17216
2016-04-30T12:34:39.941Z,17472
2016-04-30T12:35:39.147Z,17664
2016-04-30T12:36:39.149Z,17920
2016-04-30T12:37:39.230Z,18048
2016-04-30T12:38:39.041Z,18176
2016-04-30T12:39:39.256Z,18400
2016-04-30T12:40:39.003Z,18560
2016-04-30T12:41:39.343Z,18656
2016-04-30T12:42:39.276Z,18720
2016-04-30T12:43:39.500Z,18848
2016-04-30T12:44:39.502Z,19072
2016-04-30T12:45:39.536Z,19200
2016-04-30T12:46:39.412Z,19328
2016-04-30T12:47:39.446Z,19296
2016-04-30T12:48:39.663Z,19392
2016-04-30T12:49:40.311Z,19392
2016-04-30T12:50:40.319Z,19360
2016-04-30T12:51:39.687Z,19232
2016-04-30T12:52:39.960Z,19136
2016-04-30T12:53:39.717Z,18976
2016-04-30T12:54:40.035Z,18944
2016-04-30T12:55:39.773Z,19040
2016-04-30T12:56:39.825Z,19040
2016-04-30T12:57:39.643Z,19200
2016-04-30T12:58:40.209Z,19168
2016-04-30T12:59:40.072Z,19104
2016-04-30T13:00:39.700Z,18912
2016-04-30T13:01:40.141Z,18816
2016-04-30T13:02:39.752Z,18560
2016-04-30T13:03:39.772Z,18592
2016-04-30T13:04:41.072Z,18592
2016-04-30T13:05:40.231Z,18624
2016-04-30T13:06:40.047Z,18720
2016-04-30T13:07:40.017Z,18752
2016-04-30T13:08:40.192Z,18752
2016-04-30T13:09:39.992Z,18784
2016-04-30T13:10:40.480Z,18752
2016-04-30T13:11:40.045Z,18752
2016-04-30T13:12:39.892Z,18720
2016-04-30T13:13:40.081Z,18624
2016-04-30T13:14:40.099Z,18528
2016-04-30T13:15:40.118Z,18496
2016-04-30T13:16:40.339Z,18432
2016-04-30T13:17:40.124Z,18464
2016-04-30T13:18:40.189Z,18528
2016-04-30T13:19:40.239Z,18560
2016-04-30T13:20:40.224Z,18496
2016-04-30T13:21:40.243Z,18368
2016-04-30T13:22:40.058Z,18272
2016-04-30T13:23:40.452Z,18112
2016-04-30T13:24:40.252Z,17888
2016-04-30T13:25:40.691Z,17632
2016-04-30T13:26:40.132Z,17440
2016-04-30T13:27:40.307Z,17280
2016-04-30T13:28:40.309Z,17024
2016-04-30T13:29:40.062Z,16832
2016-04-30T13:30:40.329Z,16672
2016-04-30T13:31:40.411Z,16544
2016-04-30T13:32:54.320Z,16288
2016-04-30T13:33:40.432Z,16192
2016-04-30T13:34:41.388Z,15792
2016-04-30T13:35:40.312Z,15508
2016-04-30T13:36:40.470Z,15240
2016-04-30T13:37:54.803Z,15052
2016-04-30T13:38:40.523Z,15004
2016-04-30T13:39:40.495Z,15008
2016-04-30T13:40:40.513Z,15060
2016-04-30T13:41:40.439Z,15084
2016-04-30T13:42:40.409Z,15068
2016-04-30T13:43:40.787Z,15016
2016-04-30T13:44:40.431Z,15028
2016-04-30T13:45:40.620Z,15092
2016-04-30T13:46:40.811Z,15076
2016-04-30T13:47:40.657Z,15196
2016-04-30T13:48:40.863Z,15412
2016-04-30T13:49:42.397Z,15588
2016-04-30T13:50:40.462Z,15712
2016-04-30T13:51:40.918Z,15792
2016-04-30T13:52:40.936Z,15884